createdAt,value
2023-03-22T00:01:53.588Z,99522.25
2023-03-22T00:06:55.431Z,99529.03
2023-03-22T00:11:57.026Z,99491.59
2023-03-22T00:16:58.662Z,99478.72
2023-03-22T00:22:01.208Z,99547.56
2023-03-22T00:27:03.477Z,99525.13
2023-03-22T00:32:05.362Z,99484.63
2023-03-22T00:37:08.047Z,99467.66
2023-03-22T00:42:10.485Z,99488.94
2023-03-22T00:47:12.390Z,99517.06
2023-03-22T00:52:14.217Z,99511.69
2023-03-22T00:57:16.202Z,99470.94
2023-03-22T01:02:17.800Z,99464.44
2023-03-22T01:07:21.623Z,99471.31
2023-03-22T01:12:23.396Z,99504.09
2023-03-22T01:17:24.952Z,99492.03
2023-03-22T01:22:26.811Z,99471.34
2023-03-22T01:27:28.434Z,99490.00
2023-03-22T01:32:29.988Z,99472.09
2023-03-22T01:37:32.733Z,99475.69
2023-03-22T01:42:34.340Z,99473.53
2023-03-22T01:47:36.481Z,99463.25
2023-03-22T01:52:38.734Z,99484.81
2023-03-22T01:57:42.258Z,99443.22
2023-03-22T02:02:46.029Z,99352.03
2023-03-22T02:07:48.870Z,99488.56
2023-03-22T02:12:59.512Z,99430.78
2023-03-22T02:18:11.509Z,99500.09
2023-03-22T02:23:28.076Z,99469.13
2023-03-22T02:28:41.280Z,99462.28
2023-03-22T02:34:04.068Z,99468.56
2023-03-22T02:39:22.894Z,99490.34
2023-03-22T02:44:41.120Z,99455.59
2023-03-22T02:49:51.961Z,99468.38
2023-03-22T02:55:09.883Z,99455.97
2023-03-22T03:00:14.640Z,99472.78
2023-03-22T03:05:19.029Z,99426.63
2023-03-22T03:10:21.486Z,99465.25
2023-03-22T03:15:23.798Z,99473.56
2023-03-22T03:20:34.437Z,99505.56
2023-03-22T03:25:47.978Z,99518.78
2023-03-22T03:30:59.772Z,99460.47
2023-03-22T03:36:05.298Z,99471.94
2023-03-22T03:41:11.739Z,99533.94
2023-03-22T03:46:14.501Z,99510.16
2023-03-22T03:51:16.553Z,99489.28
2023-03-22T03:56:18.241Z,99518.09
2023-03-22T04:01:21.025Z,99479.03
2023-03-22T04:06:22.742Z,99521.41
2023-03-22T04:11:24.325Z,99502.84
2023-03-22T04:16:26.040Z,99344.22
2023-03-22T04:21:27.653Z,99501.31
2023-03-22T04:26:29.354Z,99500.94
2023-03-22T04:31:33.116Z,99519.16
2023-03-22T04:36:39.416Z,99491.53
2023-03-22T04:41:40.999Z,99456.91
2023-03-22T04:46:44.490Z,99445.41
2023-03-22T04:51:46.130Z,99469.00
2023-03-22T04:56:48.089Z,99462.84
2023-03-22T05:01:51.453Z,99497.06
2023-03-22T05:06:53.633Z,99502.75
2023-03-22T05:11:55.193Z,99500.69
2023-03-22T05:16:56.925Z,99496.56
2023-03-22T05:22:01.950Z,99512.13
2023-03-22T05:27:03.887Z,99513.47
2023-03-22T05:32:05.783Z,99517.00
2023-03-22T05:37:07.418Z,99549.63
2023-03-22T05:42:08.970Z,99531.50
2023-03-22T05:47:11.428Z,99562.44
2023-03-22T05:52:13.038Z,99552.72
2023-03-22T05:57:14.630Z,99547.69
2023-03-22T06:02:16.221Z,99565.69
2023-03-22T06:07:18.603Z,99552.34
2023-03-22T06:12:24.660Z,99537.88
2023-03-22T06:17:26.557Z,99553.88
2023-03-22T06:22:30.570Z,99551.44
2023-03-22T06:27:32.900Z,99568.88
2023-03-22T06:32:34.484Z,99570.53
2023-03-22T06:37:36.083Z,99551.28
2023-03-22T06:42:37.874Z,99574.22
2023-03-22T06:47:39.675Z,99555.44
2023-03-22T06:52:41.531Z,99578.59
2023-03-22T06:57:43.080Z,99569.41
2023-03-22T07:02:44.650Z,99553.81
2023-03-22T07:12:48.019Z,99573.00
2023-03-22T07:17:49.816Z,99574.09
2023-03-22T07:22:51.523Z,99557.75
2023-03-22T07:27:53.108Z,99552.44
2023-03-22T07:32:54.758Z,99561.88
2023-03-22T07:37:56.576Z,99603.38
2023-03-22T07:43:01.473Z,99592.03
2023-03-22T07:48:03.169Z,99557.94
2023-03-22T07:53:04.906Z,99563.13
2023-03-22T07:58:06.607Z,99585.13
2023-03-22T08:03:08.244Z,99566.38
2023-03-22T08:08:11.106Z,99537.06
2023-03-22T08:13:12.700Z,99518.06
2023-03-22T08:18:14.293Z,99524.28
2023-03-22T08:23:16.359Z,99551.09
2023-03-22T08:28:18.578Z,99500.63
2023-03-22T08:33:23.192Z,99498.97
2023-03-22T08:38:24.786Z,99533.91
2023-03-22T08:43:26.435Z,99482.31
2023-03-22T08:48:30.682Z,99491.63
2023-03-22T08:53:32.481Z,99506.66
2023-03-22T08:58:34.106Z,99483.34
2023-03-22T09:03:35.664Z,99466.66
2023-03-22T09:08:38.212Z,99463.81
2023-03-22T09:13:40.043Z,99446.38
2023-03-22T09:18:41.709Z,99440.47
2023-03-22T09:23:47.696Z,99475.34
2023-03-22T09:28:50.013Z,99451.53
2023-03-22T09:33:51.749Z,99398.00
2023-03-22T09:38:53.318Z,99434.19
2023-03-22T09:43:59.714Z,99387.00
2023-03-22T09:49:06.155Z,99442.31
2023-03-22T09:54:30.827Z,99410.66
2023-03-22T09:59:57.268Z,99401.69
2023-03-22T10:05:10.854Z,99410.94
2023-03-22T10:10:18.948Z,99393.56
2023-03-22T10:15:27.178Z,99328.25
2023-03-22T10:21:06.553Z,99298.88
2023-03-22T10:26:14.361Z,99352.47
2023-03-22T10:31:17.923Z,99260.50
2023-03-22T10:36:23.005Z,99247.75
2023-03-22T10:41:25.856Z,99320.16
2023-03-22T10:46:40.988Z,99250.56
2023-03-22T10:51:51.552Z,99278.59
2023-03-22T10:56:53.177Z,99226.03
2023-03-22T11:06:38.221Z,99304.69
2023-03-22T11:12:00.678Z,99286.94
2023-03-22T11:17:10.127Z,99279.13
2023-03-22T11:22:39.109Z,99217.16
2023-03-22T11:27:51.252Z,99250.31
2023-03-22T11:33:08.019Z,99237.16
2023-03-22T11:38:25.922Z,99234.75
2023-03-22T11:43:40.235Z,99203.94
2023-03-22T11:48:42.933Z,99207.00
2023-03-22T11:53:48.128Z,99195.13
2023-03-22T11:59:06.780Z,99191.03
2023-03-22T12:04:14.785Z,99207.41
2023-03-22T12:09:39.260Z,99198.88
2023-03-22T12:15:02.532Z,99189.59
2023-03-22T12:20:17.983Z,99205.03
2023-03-22T12:25:24.965Z,99169.56
2023-03-22T12:30:42.130Z,99160.03
2023-03-22T12:35:47.292Z,99128.16
2023-03-22T12:40:52.349Z,99156.00
2023-03-22T12:45:59.156Z,99105.69
2023-03-22T12:51:05.198Z,99121.97
2023-03-22T12:56:07.362Z,99078.06
2023-03-22T13:01:26.917Z,99075.66
2023-03-22T13:06:34.856Z,99072.47
2023-03-22T13:11:36.768Z,99011.56
2023-03-22T13:16:51.228Z,99036.03
2023-03-22T13:22:17.796Z,98978.72
2023-03-22T13:27:19.457Z,98951.69
2023-03-22T13:32:29.926Z,98957.34
2023-03-22T13:37:47.163Z,98953.19
2023-03-22T13:42:50.693Z,98978.72
2023-03-22T13:48:29.821Z,98968.16
2023-03-22T13:53:36.661Z,98924.66
2023-03-22T13:58:53.681Z,98947.63
2023-03-22T14:04:01.264Z,98933.59
2023-03-22T14:09:13.364Z,98962.72
2023-03-22T14:14:22.200Z,98928.22
2023-03-22T14:19:28.066Z,98933.38
